Time;durP1;ratioP1;P1;durP2;ratioP2;P2;SDS_P1;SDS_P2;PMS_P1;PMS_P2;Temp;Humidity;BMP_temperature;BMP_pressure;BME280_temperature;BME280_humidity;BME280_pressure;Samples;Min_cycle;Max_cycle;Signal;HPM_P1;HPM_P2
2024/04/22 00:02:25;;;;;;;0.00;0.00;;;5.30;99.90;;;;;;5097626;27;20034;-64
2024/04/22 00:04:52;;;;;;;0.00;0.00;;;5.30;99.90;;;;;;5103576;28;20021;-63
2024/04/22 00:07:18;;;;;;;0.00;0.00;;;5.20;99.90;;;;;;5125877;27;20018;-64
2024/04/22 00:09:46;;;;;;;0.00;0.00;;;5.20;99.90;;;;;;5119218;27;20472;-64
2024/04/22 00:12:12;;;;;;;0.00;0.00;;;5.20;99.90;;;;;;5100520;27;20323;-63
2024/04/22 00:14:39;;;;;;;0.00;0.00;;;5.20;99.90;;;;;;5101469;28;20024;-63
2024/04/22 00:17:07;;;;;;;0.00;0.00;;;5.10;99.90;;;;;;5109253;27;20005;-63
2024/04/22 00:19:32;;;;;;;0.00;0.00;;;5.10;99.90;;;;;;5110030;27;20006;-63
2024/04/22 00:21:58;;;;;;;0.00;0.00;;;5.10;99.90;;;;;;5125691;27;20038;-63
2024/04/22 00:24:25;;;;;;;0.00;0.00;;;5.10;99.90;;;;;;5100192;27;20420;-63
2024/04/22 00:26:51;;;;;;;0.00;0.00;;;5.10;99.90;;;;;;5105780;27;20090;-63
2024/04/22 00:29:17;;;;;;;0.00;0.00;;;5.10;99.90;;;;;;5127764;27;20013;-63
2024/04/22 00:31:43;;;;;;;0.00;0.00;;;5.10;1.00;;;;;;5110587;27;20028;-63
2024/04/22 00:34:09;;;;;;;0.00;0.00;;;5.10;1.00;;;;;;5073775;28;20246;-63
2024/04/22 00:36:34;;;;;;;0.00;0.00;;;5.10;1.00;;;;;;5101238;28;20381;-63
2024/04/22 00:39:00;;;;;;;0.00;0.00;;;5.10;1.00;;;;;;5102408;27;20450;-64
2024/04/22 00:41:30;;;;;;;0.00;0.00;;;5.00;1.00;;;;;;5101045;28;20184;-63
2024/04/22 00:43:56;;;;;;;0.00;0.00;;;5.00;1.00;;;;;;5102559;27;20016;-63
2024/04/22 00:46:21;;;;;;;0.00;0.00;;;5.00;1.00;;;;;;5100288;28;20451;-64
2024/04/22 00:48:47;;;;;;;0.00;0.00;;;4.90;1.00;;;;;;5101725;27;20371;-63
2024/04/22 00:51:15;;;;;;;0.00;0.00;;;4.90;1.00;;;;;;5101950;27;20350;-63
2024/04/22 00:53:41;;;;;;;0.00;0.00;;;4.90;1.00;;;;;;5100025;27;20495;-63
2024/04/22 00:56:08;;;;;;;0.00;0.00;;;4.90;10.20;;;;;;5102297;28;20457;-63
2024/04/22 00:58:37;;;;;;;0.00;0.00;;;4.90;99.90;;;;;;5106810;27;20009;-63
2024/04/22 01:01:05;;;;;;;0.00;0.00;;;4.90;99.90;;;;;;5106504;27;20360;-63
2024/04/22 01:03:34;;;;;;;0.10;0.03;;;4.90;99.90;;;;;;5108565;27;20052;-63
2024/04/22 01:05:59;;;;;;;0.00;0.00;;;4.80;99.90;;;;;;5124456;27;20423;-63
2024/04/22 01:08:26;;;;;;;0.00;0.00;;;4.80;99.90;;;;;;5099097;27;20006;-63
2024/04/22 01:10:53;;;;;;;0.00;0.00;;;4.80;99.90;;;;;;5102880;27;20080;-63
2024/04/22 01:13:20;;;;;;;0.00;0.00;;;4.80;99.90;;;;;;5099813;27;20029;-63
2024/04/22 01:15:46;;;;;;;0.00;0.00;;;4.70;99.90;;;;;;5100771;28;20009;-63
2024/04/22 01:18:19;;;;;;;0.00;0.00;;;4.70;99.90;;;;;;5106197;27;20344;-63
2024/04/22 01:20:46;;;;;;;0.00;0.00;;;4.70;99.90;;;;;;5072586;28;20493;-63
2024/04/22 01:23:12;;;;;;;0.00;0.00;;;4.70;99.90;;;;;;5119000;27;20109;-63
2024/04/22 01:25:41;;;;;;;0.00;0.00;;;4.80;99.90;;;;;;5117962;27;20023;-63
2024/04/22 01:28:15;;;;;;;0.00;0.00;;;4.80;99.90;;;;;;5128159;27;20005;-64
2024/04/22 01:30:41;;;;;;;0.00;0.00;;;4.80;99.90;;;;;;5102154;28;20385;-64
2024/04/22 01:33:07;;;;;;;0.00;0.00;;;4.90;99.90;;;;;;5100130;27;20439;-64
2024/04/22 01:35:33;;;;;;;0.00;0.00;;;4.80;99.90;;;;;;5101514;28;20093;-63
2024/04/22 01:37:59;;;;;;;0.00;0.00;;;4.90;99.90;;;;;;5099939;27;20009;-64
2024/04/22 01:40:25;;;;;;;0.00;0.00;;;4.90;99.90;;;;;;5100717;28;20020;-64
2024/04/22 01:42:51;;;;;;;0.00;0.00;;;5.00;99.90;;;;;;5101369;27;20016;-63
2024/04/22 01:45:17;;;;;;;0.00;0.00;;;5.00;99.90;;;;;;5100940;28;20693;-63
2024/04/22 01:47:43;;;;;;;0.00;0.00;;;5.00;99.90;;;;;;5116111;27;20013;-63
2024/04/22 01:50:10;;;;;;;0.00;0.00;;;5.00;99.90;;;;;;5103423;27;20030;-63
2024/04/22 01:52:37;;;;;;;0.00;0.00;;;5.00;99.90;;;;;;5100664;27;20024;-63
2024/04/22 01:55:03;;;;;;;0.00;0.00;;;5.00;99.90;;;;;;5124986;27;20364;-63
2024/04/22 01:57:29;;;;;;;0.00;0.00;;;5.00;99.90;;;;;;5101220;27;20014;-63
2024/04/22 01:59:55;;;;;;;0.00;0.00;;;4.90;99.90;;;;;;5104303;27;20006;-63
2024/04/22 02:02:20;;;;;;;0.00;0.00;;;4.90;99.90;;;;;;5100934;27;20057;-63
2024/04/22 02:04:47;;;;;;;0.00;0.00;;;4.80;99.90;;;;;;5073428;28;20002;-63
2024/04/22 02:07:12;;;;;;;0.00;0.00;;;4.80;99.90;;;;;;5100274;28;20024;-63
2024/04/22 02:09:40;;;;;;;0.00;0.00;;;4.70;99.90;;;;;;5100928;27;20542;-63
2024/04/22 02:12:06;;;;;;;0.47;0.00;;;4.70;99.90;;;;;;5099584;28;20014;-62
2024/04/22 02:14:32;;;;;;;0.00;0.00;;;4.70;99.90;;;;;;5100713;28;20028;-63
2024/04/22 02:16:58;;;;;;;0.00;0.00;;;4.60;99.90;;;;;;5099775;27;20006;-63
2024/04/22 02:19:26;;;;;;;0.08;0.08;;;4.60;99.90;;;;;;5072502;27;20014;-63
2024/04/22 02:21:52;;;;;;;0.00;0.00;;;4.60;99.90;;;;;;5100301;28;20009;-63
2024/04/22 02:24:18;;;;;;;0.00;0.00;;;4.50;99.90;;;;;;5100109;27;20337;-63
2024/04/22 02:26:44;;;;;;;0.00;0.00;;;4.40;99.90;;;;;;5107491;27;20013;-63
2024/04/22 02:29:11;;;;;;;0.00;0.00;;;4.30;99.90;;;;;;5115172;27;20013;-63
2024/04/22 02:31:37;;;;;;;0.00;0.00;;;4.20;99.90;;;;;;5100609;28;20659;-62
2024/04/22 02:34:03;;;;;;;0.00;0.00;;;4.30;99.90;;;;;;5099389;27;20006;-63
2024/04/22 02:36:29;;;;;;;0.00;0.00;;;4.20;99.90;;;;;;5103432;28;20070;-63
2024/04/22 02:38:56;;;;;;;0.00;0.00;;;4.20;99.90;;;;;;5107588;27;20063;-63
2024/04/22 02:41:21;;;;;;;0.00;0.00;;;4.10;99.90;;;;;;5106447;27;20006;-63
2024/04/22 02:43:48;;;;;;;0.00;0.00;;;4.00;99.90;;;;;;5128751;27;20107;-63
2024/04/22 02:46:15;;;;;;;0.00;0.00;;;4.00;99.90;;;;;;5102294;27;20001;-63
2024/04/22 02:48:41;;;;;;;0.00;0.00;;;3.90;99.90;;;;;;5103441;27;20014;-63
2024/04/22 02:51:07;;;;;;;0.00;0.00;;;3.80;99.90;;;;;;5102507;28;20601;-63
2024/04/22 02:53:34;;;;;;;0.00;0.00;;;3.80;99.90;;;;;;5103811;28;20457;-63
2024/04/22 02:55:59;;;;;;;0.00;0.00;;;3.70;99.90;;;;;;5112799;27;20046;-62
2024/04/22 02:58:45;;;;;;;0.00;0.00;;;3.70;1.00;;;;;;5110249;27;20014;-63
2024/04/22 03:01:13;;;;;;;0.00;0.00;;;3.70;1.00;;;;;;5104133;27;20006;-63
2024/04/22 03:03:38;;;;;;;0.00;0.00;;;3.70;1.00;;;;;;5101923;27;20582;-63
2024/04/22 03:06:07;;;;;;;0.00;0.00;;;3.60;1.00;;;;;;5103710;27;20018;-63
2024/04/22 03:08:33;;;;;;;0.00;0.00;;;3.60;1.00;;;;;;5102348;28;20032;-63
2024/04/22 03:10:59;;;;;;;0.00;0.00;;;3.60;1.00;;;;;;5103528;27;20450;-63
2024/04/22 03:13:45;;;;;;;0.00;0.00;;;3.60;1.00;;;;;;5123868;27;20021;-62
2024/04/22 03:16:11;;;;;;;0.00;0.00;;;3.60;59.50;;;;;;5101631;27;20548;-63
2024/04/22 03:18:57;;;;;;;0.00;0.00;;;3.70;99.90;;;;;;5124741;27;20337;-63
2024/04/22 03:21:23;;;;;;;0.00;0.00;;;3.60;99.90;;;;;;5101459;27;20358;-63
2024/04/22 03:23:49;;;;;;;0.00;0.00;;;3.50;94.90;;;;;;5103594;28;20273;-63
2024/04/22 03:26:16;;;;;;;0.00;0.00;;;3.50;71.80;;;;;;5073902;28;20017;-62
2024/04/22 03:28:42;;;;;;;0.08;0.03;;;3.40;28.60;;;;;;5102804;28;20053;-63
2024/04/22 03:31:31;;;;;;;0.00;0.00;;;3.40;28.40;;;;;;5124349;27;20014;-63
2024/04/22 03:33:58;;;;;;;0.00;0.00;;;3.30;74.90;;;;;;5101911;27;20017;-63
2024/04/22 03:36:45;;;;;;;0.00;0.00;;;3.40;99.90;;;;;;5057786;28;20385;-63
2024/04/22 03:39:10;;;;;;;0.00;0.00;;;3.40;99.90;;;;;;5101001;27;20467;-63
2024/04/22 03:41:36;;;;;;;0.00;0.00;;;3.40;99.90;;;;;;5102535;28;20021;-63
2024/04/22 03:44:02;;;;;;;0.00;0.00;;;3.40;99.90;;;;;;5128178;27;20010;-63
2024/04/22 03:52:03;;;;;;;0.00;0.00;;;3.40;99.90;;;;;;5117755;27;20592;-63
2024/04/22 03:54:30;;;;;;;0.00;0.00;;;3.40;99.90;;;;;;5102665;27;20024;-63
2024/04/22 03:56:56;;;;;;;0.00;0.00;;;3.40;99.90;;;;;;5101877;28;20014;-64
2024/04/22 03:59:22;;;;;;;0.00;0.00;;;3.40;99.90;;;;;;5101861;27;20358;-63
2024/04/22 04:01:50;;;;;;;0.00;0.00;;;3.40;99.90;;;;;;5103475;27;20095;-63
2024/04/22 04:04:16;;;;;;;0.00;0.00;;;3.50;99.90;;;;;;5101091;27;20013;-64
2024/04/22 04:07:02;;;;;;;0.00;0.00;;;3.60;99.90;;;;;;5079554;28;20045;-63
2024/04/22 04:09:28;;;;;;;0.00;0.00;;;3.70;99.90;;;;;;5101334;27;20006;-63
2024/04/22 04:11:54;;;;;;;0.00;0.00;;;3.80;99.90;;;;;;5102764;28;20009;-63
2024/04/22 04:14:20;;;;;;;0.00;0.00;;;3.80;99.90;;;;;;5102906;28;20046;-63
2024/04/22 04:16:46;;;;;;;0.00;0.00;;;3.90;99.90;;;;;;5100259;27;20015;-63
2024/04/22 04:19:32;;;;;;;0.00;0.00;;;3.90;99.90;;;;;;5084842;27;20009;-63
2024/04/22 04:21:58;;;;;;;0.00;0.00;;;3.90;99.90;;;;;;5125365;27;20002;-63
2024/04/22 04:24:23;;;;;;;0.00;0.00;;;3.90;99.90;;;;;;5102654;27;20099;-63
2024/04/22 04:26:49;;;;;;;0.00;0.00;;;4.00;99.90;;;;;;5101618;28;20018;-63
2024/04/22 04:29:15;;;;;;;0.00;0.00;;;4.00;99.90;;;;;;5104347;27;20025;-63
2024/04/22 04:31:41;;;;;;;0.00;0.00;;;4.10;99.90;;;;;;5081390;27;20046;-63
2024/04/22 04:34:08;;;;;;;0.00;0.00;;;4.10;99.90;;;;;;5119249;27;20466;-63
2024/04/22 04:36:34;;;;;;;0.00;0.00;;;4.20;99.90;;;;;;5102113;28;20102;-63
2024/04/22 04:39:00;;;;;;;0.00;0.00;;;4.10;99.90;;;;;;5099918;27;20026;-63
2024/04/22 04:41:26;;;;;;;0.00;0.00;;;4.20;99.90;;;;;;5110448;27;20002;-63
2024/04/22 04:43:52;;;;;;;0.00;0.00;;;4.20;99.90;;;;;;5099773;28;20025;-63
2024/04/22 04:46:18;;;;;;;0.00;0.00;;;4.30;99.90;;;;;;5101621;27;20080;-63
2024/04/22 04:48:44;;;;;;;0.00;0.00;;;4.30;99.90;;;;;;5101161;28;20026;-63
2024/04/22 04:51:10;;;;;;;0.00;0.00;;;4.40;99.90;;;;;;5113327;27;20430;-63
2024/04/22 04:53:35;;;;;;;0.00;0.00;;;4.40;99.90;;;;;;5102700;28;20018;-63
2024/04/22 04:56:02;;;;;;;0.00;0.00;;;4.40;99.90;;;;;;5099199;27;20010;-63
2024/04/22 04:58:28;;;;;;;0.00;0.00;;;4.50;99.90;;;;;;5102092;28;20024;-63
2024/04/22 05:00:54;;;;;;;0.00;0.00;;;4.60;99.90;;;;;;5102590;27;20358;-63
2024/04/22 05:03:21;;;;;;;0.00;0.00;;;4.60;99.90;;;;;;5101874;28;20030;-63
2024/04/22 05:06:01;;;;;;;0.00;0.00;;;4.70;99.90;;;;;;5104949;27;20010;-63
2024/04/22 05:08:27;;;;;;;0.00;0.00;;;4.70;99.90;;;;;;5119478;27;20010;-63
2024/04/22 05:10:53;;;;;;;0.00;0.00;;;4.80;99.90;;;;;;5130661;27;20017;-63
2024/04/22 05:13:21;;;;;;;0.00;0.00;;;4.90;99.90;;;;;;5089844;28;20042;-63
2024/04/22 05:15:47;;;;;;;0.00;0.00;;;4.90;99.90;;;;;;5101083;27;20318;-63
2024/04/22 05:18:13;;;;;;;0.00;0.00;;;4.90;99.90;;;;;;5100203;28;20103;-63
2024/04/22 05:20:39;;;;;;;0.00;0.00;;;4.90;1.00;;;;;;5115703;27;20081;-63
2024/04/22 05:23:05;;;;;;;0.00;0.00;;;5.00;99.90;;;;;;5105958;27;20009;-63
2024/04/22 05:25:31;;;;;;;0.00;0.00;;;5.10;99.90;;;;;;5072835;28;20017;-63
2024/04/22 05:27:59;;;;;;;0.00;0.00;;;5.20;22.30;;;;;;5101531;28;20037;-63
2024/04/22 05:30:24;;;;;;;0.00;0.00;;;5.30;1.00;;;;;;5099795;27;20079;-63
2024/04/22 05:32:50;;;;;;;0.00;0.00;;;5.40;99.90;;;;;;5102070;28;20414;-63
2024/04/22 05:38:01;;;;;;;0.00;0.00;;;5.50;99.90;;;;;;5101170;27;20020;-63
2024/04/22 05:40:29;;;;;;;0.00;0.00;;;5.60;99.90;;;;;;5099495;27;20005;-64
2024/04/22 05:42:56;;;;;;;0.00;0.00;;;5.60;99.90;;;;;;5086128;28;20014;-63
2024/04/22 05:45:22;;;;;;;0.00;0.00;;;5.60;99.90;;;;;;5100525;27;20016;-64
2024/04/22 05:47:49;;;;;;;0.00;0.00;;;5.70;99.90;;;;;;5100041;28;20013;-63
2024/04/22 05:50:15;;;;;;;0.00;0.00;;;5.70;99.90;;;;;;5101701;27;20082;-63
2024/04/22 05:52:41;;;;;;;0.00;0.00;;;5.80;99.90;;;;;;5100010;27;20390;-63
2024/04/22 05:55:26;;;;;;;0.00;0.00;;;5.80;99.90;;;;;;5098358;27;20560;-63
2024/04/22 05:57:57;;;;;;;0.00;0.00;;;5.80;99.90;;;;;;5096409;28;20010;-63
2024/04/22 06:00:22;;;;;;;0.00;0.00;;;5.80;99.90;;;;;;5103766;27;20005;-64
2024/04/22 06:02:48;;;;;;;0.00;0.00;;;5.90;1.00;;;;;;5099185;27;20316;-63
2024/04/22 06:05:14;;;;;;;0.00;0.00;;;5.90;1.00;;;;;;5098225;27;20046;-63
2024/04/22 06:07:41;;;;;;;0.00;0.00;;;6.00;99.90;;;;;;5100747;27;20002;-64
2024/04/22 06:10:07;;;;;;;0.00;0.00;;;6.00;99.90;;;;;;5096712;27;20006;-64
2024/04/22 06:12:33;;;;;;;0.00;0.00;;;6.10;99.90;;;;;;5102036;28;20025;-63
2024/04/22 06:15:03;;;;;;;0.00;0.00;;;6.10;99.90;;;;;;5094291;27;20024;-63
2024/04/22 06:17:30;;;;;;;0.00;0.00;;;6.20;99.90;;;;;;5117145;27;20009;-64
2024/04/22 06:19:55;;;;;;;0.00;0.00;;;6.20;99.90;;;;;;5103994;27;20519;-64
2024/04/22 06:22:25;;;;;;;0.00;0.00;;;6.20;1.00;;;;;;5105587;27;20074;-63
2024/04/22 06:24:52;;;;;;;0.00;0.00;;;6.20;1.00;;;;;;5084112;27;20024;-64
2024/04/22 06:27:18;;;;;;;0.08;0.08;;;6.20;99.90;;;;;;5098626;27;20006;-64
2024/04/22 06:29:44;;;;;;;0.10;0.10;;;6.20;99.90;;;;;;5100745;27;20021;-63
2024/04/22 06:32:10;;;;;;;0.00;0.00;;;6.30;99.90;;;;;;5099355;27;20513;-64
2024/04/22 06:34:36;;;;;;;0.00;0.00;;;6.30;99.90;;;;;;5102795;27;20090;-64
2024/04/22 06:37:02;;;;;;;0.00;0.00;;;6.30;99.90;;;;;;5099025;27;20025;-63
2024/04/22 06:39:27;;;;;;;0.00;0.00;;;6.40;99.90;;;;;;5098813;28;20464;-64
2024/04/22 06:41:53;;;;;;;0.00;0.00;;;6.40;99.90;;;;;;5101712;27;20016;-63
2024/04/22 06:44:19;;;;;;;0.25;0.05;;;6.40;99.90;;;;;;5098895;28;20071;-64
2024/04/22 06:46:45;;;;;;;0.00;0.00;;;6.50;99.90;;;;;;5107902;27;20006;-64
2024/04/22 06:49:11;;;;;;;0.00;0.00;;;6.50;99.90;;;;;;5107100;27;20472;-64
2024/04/22 06:51:37;;;;;;;0.00;0.00;;;6.60;99.90;;;;;;5097837;27;20009;-63
2024/04/22 06:54:03;;;;;;;0.00;0.00;;;6.60;99.90;;;;;;5101286;27;20014;-63
2024/04/22 06:56:29;;;;;;;0.00;0.00;;;6.70;99.90;;;;;;5105890;27;20038;-63
2024/04/22 06:58:56;;;;;;;0.00;0.00;;;6.70;99.90;;;;;;5138148;27;20468;-64
2024/04/22 07:01:22;;;;;;;0.00;0.00;;;6.80;99.90;;;;;;5110509;27;20002;-63
2024/04/22 07:03:48;;;;;;;0.00;0.00;;;6.80;99.90;;;;;;5099424;27;20006;-63
2024/04/22 07:06:15;;;;;;;0.00;0.00;;;6.90;99.90;;;;;;5111398;27;20001;-64
2024/04/22 07:08:41;;;;;;;0.00;0.00;;;7.00;99.90;;;;;;5111067;27;20017;-63
2024/04/22 07:11:07;;;;;;;0.00;0.00;;;7.00;99.90;;;;;;5102906;27;20445;-63
2024/04/22 07:13:32;;;;;;;0.00;0.00;;;7.00;99.90;;;;;;5096485;28;20010;-63
2024/04/22 07:15:58;;;;;;;0.00;0.00;;;7.00;99.90;;;;;;5079129;28;20079;-64
2024/04/22 07:18:25;;;;;;;0.00;0.00;;;6.90;99.90;;;;;;5074630;28;20006;-64
2024/04/22 07:20:50;;;;;;;0.00;0.00;;;6.90;99.90;;;;;;5079603;28;20006;-64
2024/04/22 07:23:16;;;;;;;0.00;0.00;;;6.90;99.90;;;;;;5074913;28;20007;-64
2024/04/22 07:25:42;;;;;;;0.00;0.00;;;7.00;99.90;;;;;;5072713;28;20014;-63
2024/04/22 07:28:08;;;;;;;0.00;0.00;;;7.20;1.00;;;;;;5075361;28;20372;-64
2024/04/22 07:30:35;;;;;;;0.00;0.00;;;7.50;99.90;;;;;;5076750;28;20367;-63
2024/04/22 07:33:01;;;;;;;0.00;0.00;;;7.50;99.90;;;;;;5082206;28;20010;-63
2024/04/22 07:35:27;;;;;;;0.00;0.00;;;7.80;99.90;;;;;;5081051;28;20116;-64
2024/04/22 07:37:58;;;;;;;0.00;0.00;;;7.90;99.90;;;;;;5081685;28;20484;-64
2024/04/22 07:40:24;;;;;;;0.00;0.00;;;7.90;99.90;;;;;;5097655;27;20021;-63
2024/04/22 07:42:50;;;;;;;0.00;0.00;;;7.90;99.90;;;;;;5106338;27;20010;-63
2024/04/22 07:45:18;;;;;;;0.00;0.00;;;8.10;1.00;;;;;;5073451;28;20025;-64
2024/04/22 07:47:44;;;;;;;0.00;0.00;;;8.20;1.00;;;;;;5084832;28;20025;-64
2024/04/22 07:50:11;;;;;;;0.00;0.00;;;8.20;99.90;;;;;;5079143;28;20350;-63
2024/04/22 07:52:39;;;;;;;0.00;0.00;;;7.90;99.90;;;;;;5080042;28;20016;-64
2024/04/22 07:55:06;;;;;;;0.00;0.00;;;7.80;1.00;;;;;;5087962;28;20014;-63
2024/04/22 07:57:33;;;;;;;0.00;0.00;;;7.90;1.00;;;;;;5092104;28;20461;-63
2024/04/22 08:00:03;;;;;;;0.00;0.00;;;8.00;18.40;;;;;;5087016;28;20025;-64
2024/04/22 08:02:29;;;;;;;0.00;0.00;;;8.40;17.90;;;;;;5079633;28;20013;-64
2024/04/22 08:04:55;;;;;;;0.00;0.00;;;8.60;1.00;;;;;;5094855;28;20009;-63
2024/04/22 08:07:21;;;;;;;0.00;0.00;;;8.80;99.90;;;;;;5083238;28;20627;-63
2024/04/22 08:09:47;;;;;;;0.00;0.00;;;8.80;99.90;;;;;;5088902;28;20063;-63
2024/04/22 08:12:13;;;;;;;0.00;0.00;;;8.90;99.90;;;;;;5071446;28;20018;-64
2024/04/22 08:14:40;;;;;;;0.00;0.00;;;9.00;99.90;;;;;;5105471;27;20373;-64
2024/04/22 08:17:07;;;;;;;0.00;0.00;;;9.10;99.90;;;;;;5112081;27;20009;-63
2024/04/22 08:19:33;;;;;;;0.00;0.00;;;9.20;99.90;;;;;;5102624;27;20755;-63
2024/04/22 08:21:59;;;;;;;0.00;0.00;;;9.20;99.90;;;;;;5122245;27;20079;-64
2024/04/22 08:24:26;;;;;;;0.00;0.00;;;9.40;99.90;;;;;;5110376;27;20013;-63
2024/04/22 08:26:56;;;;;;;0.00;0.00;;;9.60;99.90;;;;;;5123901;27;20025;-63
2024/04/22 08:29:23;;;;;;;0.00;0.00;;;9.30;99.90;;;;;;5123582;27;20002;-64
2024/04/22 08:31:48;;;;;;;0.00;0.00;;;9.00;99.90;;;;;;5114827;27;20625;-64
2024/04/22 08:34:14;;;;;;;0.00;0.00;;;8.90;99.90;;;;;;5123868;27;20005;-64
2024/04/22 08:36:40;;;;;;;0.00;0.00;;;8.60;99.90;;;;;;5098366;27;20017;-63
2024/04/22 08:39:06;;;;;;;0.00;0.00;;;8.20;91.40;;;;;;5102244;27;20025;-63
2024/04/22 08:41:36;;;;;;;0.00;0.00;;;8.00;99.90;;;;;;5101655;27;20512;-64
2024/04/22 08:44:03;;;;;;;0.00;0.00;;;7.90;99.90;;;;;;5108107;27;20021;-63
2024/04/22 08:46:29;;;;;;;0.00;0.00;;;8.00;99.90;;;;;;5102008;27;20439;-63
2024/04/22 08:48:55;;;;;;;0.00;0.00;;;8.10;99.90;;;;;;5114974;27;20024;-63
2024/04/22 08:51:22;;;;;;;0.00;0.00;;;8.10;99.90;;;;;;5118088;27;20005;-63
2024/04/22 08:53:54;;;;;;;0.00;0.00;;;7.90;99.90;;;;;;5108666;27;20032;-63
2024/04/22 08:56:24;;;;;;;0.00;0.00;;;7.70;99.90;;;;;;5129260;27;20364;-64
2024/04/22 08:58:53;;;;;;;0.00;0.00;;;7.60;99.90;;;;;;5101658;27;20013;-63
2024/04/22 09:01:19;;;;;;;0.00;0.00;;;7.50;99.90;;;;;;5114814;27;20020;-63
2024/04/22 09:03:45;;;;;;;0.00;0.00;;;7.30;99.90;;;;;;5099936;27;20005;-63
2024/04/22 09:06:11;;;;;;;0.10;0.10;;;7.30;99.90;;;;;;5113136;27;20064;-64
2024/04/22 09:08:44;;;;;;;0.10;0.10;;;7.30;99.90;;;;;;5110903;27;20021;-64
2024/04/22 09:11:17;;;;;;;0.00;0.00;;;7.30;99.90;;;;;;5106274;27;20106;-63
2024/04/22 09:13:44;;;;;;;0.00;0.00;;;7.10;99.90;;;;;;5116562;27;20352;-63
2024/04/22 09:16:16;;;;;;;0.10;0.10;;;7.00;99.90;;;;;;5106351;27;20007;-63
2024/04/22 09:18:43;;;;;;;0.00;0.00;;;6.90;99.90;;;;;;5109048;27;20028;-63
2024/04/22 09:21:10;;;;;;;0.00;0.00;;;6.80;99.90;;;;;;5125945;27;20021;-63
2024/04/22 09:23:39;;;;;;;0.00;0.00;;;6.90;99.90;;;;;;5098405;27;20009;-63
2024/04/22 09:26:06;;;;;;;0.00;0.00;;;6.90;1.00;;;;;;5102711;27;20005;-63
2024/04/22 09:28:35;;;;;;;0.00;0.00;;;7.10;1.00;;;;;;5108479;27;20013;-64
2024/04/22 09:31:05;;;;;;;0.00;0.00;;;7.50;1.00;;;;;;5101659;27;20010;-63
2024/04/22 09:33:35;;;;;;;0.00;0.00;;;8.10;1.00;;;;;;5112068;27;20013;-63
2024/04/22 09:36:05;;;;;;;0.00;0.00;;;8.80;1.00;;;;;;5106683;27;20020;-63
2024/04/22 09:38:35;;;;;;;0.00;0.00;;;9.20;99.90;;;;;;5108865;27;20369;-63
2024/04/22 09:41:07;;;;;;;0.00;0.00;;;9.30;99.90;;;;;;5100813;27;20016;-63
2024/04/22 09:43:37;;;;;;;0.00;0.00;;;9.20;99.90;;;;;;5100203;27;20014;-63
2024/04/22 09:46:03;;;;;;;0.00;0.00;;;9.00;99.90;;;;;;5100746;27;20006;-63
2024/04/22 09:48:32;;;;;;;0.05;0.03;;;8.80;99.90;;;;;;5115226;27;20013;-63
2024/04/22 09:50:59;;;;;;;0.00;0.00;;;8.40;99.90;;;;;;5113019;27;20006;-63
2024/04/22 09:53:26;;;;;;;0.20;0.00;;;8.10;99.90;;;;;;5108778;27;20013;-63
2024/04/22 09:56:00;;;;;;;0.00;0.00;;;8.10;99.90;;;;;;5113749;27;20005;-63
2024/04/22 09:58:30;;;;;;;0.00;0.00;;;8.50;99.90;;;;;;5104090;27;20357;-63
2024/04/22 10:00:56;;;;;;;0.00;0.00;;;8.80;99.90;;;;;;5105210;27;20018;-63
2024/04/22 10:03:26;;;;;;;0.00;0.00;;;8.90;99.90;;;;;;5103198;27;20020;-63
2024/04/22 10:06:02;;;;;;;0.00;0.00;;;8.50;99.90;;;;;;5104330;27;21437;-63
2024/04/22 10:08:29;;;;;;;0.00;0.00;;;8.80;99.90;;;;;;5104248;27;20082;-63
2024/04/22 10:11:09;;;;;;;0.00;0.00;;;9.00;99.90;;;;;;5101956;27;20450;-63
2024/04/22 10:13:35;;;;;;;;;;;9.00;99.90;;;;;;5102960;27;20006;-63
2024/04/22 10:16:02;;;;;;;0.00;0.00;;;9.10;99.90;;;;;;5104612;27;19940;-63
2024/04/22 10:18:29;;;;;;;0.00;0.00;;;9.20;99.90;;;;;;5099446;27;20017;-63
2024/04/22 10:21:03;;;;;;;0.17;0.00;;;9.30;99.90;;;;;;5083876;28;20050;-63
2024/04/22 10:23:29;;;;;;;0.00;0.00;;;9.30;99.90;;;;;;5116012;27;20010;-63
2024/04/22 10:25:55;;;;;;;0.00;0.00;;;9.30;99.90;;;;;;5113196;27;20465;-63
2024/04/22 10:28:22;;;;;;;0.00;0.00;;;9.40;99.90;;;;;;5113033;27;20016;-63
2024/04/22 10:30:50;;;;;;;0.00;0.00;;;9.50;99.90;;;;;;5109331;27;20010;-63
2024/04/22 10:33:16;;;;;;;0.00;0.00;;;9.60;99.90;;;;;;5101250;27;20354;-63
2024/04/22 10:35:42;;;;;;;0.00;0.00;;;9.70;99.90;;;;;;5099060;27;20063;-63
2024/04/22 10:38:09;;;;;;;0.00;0.00;;;9.80;99.90;;;;;;5099082;27;20021;-63
2024/04/22 10:40:35;;;;;;;0.00;0.00;;;9.80;99.90;;;;;;5097222;27;20588;-63
2024/04/22 10:43:01;;;;;;;0.00;0.00;;;9.50;99.90;;;;;;5098518;27;20013;-63
2024/04/22 10:45:28;;;;;;;0.00;0.00;;;9.40;99.90;;;;;;5105987;27;20016;-63
2024/04/22 10:47:54;;;;;;;0.03;0.03;;;9.20;99.90;;;;;;5102132;27;20445;-62
2024/04/22 10:50:27;;;;;;;0.00;0.00;;;9.40;99.90;;;;;;5100439;27;20551;-62
2024/04/22 10:52:55;;;;;;;0.00;0.00;;;9.50;99.90;;;;;;5092145;27;20010;-62
2024/04/22 10:55:22;;;;;;;0.00;0.00;;;9.50;99.90;;;;;;5105132;27;20010;-63
2024/04/22 10:57:48;;;;;;;0.10;0.00;;;9.50;99.90;;;;;;5117341;27;20014;-63
2024/04/22 11:00:17;;;;;;;0.00;0.00;;;9.50;99.90;;;;;;5105643;27;20090;-62
2024/04/22 11:02:44;;;;;;;0.00;0.00;;;9.60;99.90;;;;;;5099781;27;20021;-62
2024/04/22 11:05:12;;;;;;;0.05;0.05;;;9.70;99.90;;;;;;5105866;27;20041;-63
2024/04/22 11:07:38;;;;;;;0.00;0.00;;;9.20;99.90;;;;;;5122598;27;20005;-63
2024/04/22 11:10:06;;;;;;;0.00;0.00;;;8.70;99.90;;;;;;5109403;27;20573;-63
2024/04/22 11:12:32;;;;;;;0.00;0.00;;;8.70;99.90;;;;;;5101709;28;20472;-63
2024/04/22 11:15:00;;;;;;;0.00;0.00;;;8.90;99.90;;;;;;5089044;27;20022;-63
2024/04/22 11:17:27;;;;;;;0.00;0.00;;;8.90;99.90;;;;;;5069814;28;20026;-63
2024/04/22 11:19:53;;;;;;;0.10;0.10;;;9.10;99.90;;;;;;5069209;28;20365;-63
2024/04/22 11:22:22;;;;;;;0.00;0.00;;;9.00;99.90;;;;;;5046354;28;20442;-63
2024/04/22 11:24:49;;;;;;;0.00;0.00;;;8.80;99.90;;;;;;5099409;28;20007;-63
2024/04/22 11:30:47;;;;;;;0.00;0.00;;;8.70;99.90;;;;;;5065774;28;20377;-62
2024/04/22 11:33:53;;;;;;;0.00;0.00;;;8.60;99.90;;;;;;5054234;28;20015;-62
2024/04/22 11:39:58;;;;;;;0.00;0.00;;;8.50;99.90;;;;;;5076434;28;20042;-62
2024/04/22 11:42:24;;;;;;;0.00;0.00;;;8.70;99.90;;;;;;5128931;22;20019;-63
2024/04/22 11:45:09;;;;;;;0.00;0.00;;;8.80;99.90;;;;;;5146579;27;20337;-63
2024/04/22 11:48:14;;;;;;;0.00;0.00;;;8.90;99.90;;;;;;5045640;28;20014;-63
2024/04/22 11:50:41;;;;;;;0.00;0.00;;;8.70;99.90;;;;;;5061973;22;20367;-63
2024/04/22 11:53:10;;;;;;;0.00;0.00;;;8.70;99.90;;;;;;5030714;28;20011;-62
2024/04/22 11:55:36;;;;;;;0.00;0.00;;;8.60;99.90;;;;;;5021682;28;20051;-63
2024/04/22 11:58:03;;;;;;;0.00;0.00;;;8.60;99.90;;;;;;5045480;28;20327;-62
2024/04/22 12:00:35;;;;;;;0.00;0.00;;;8.80;99.90;;;;;;5052435;28;20473;-62
2024/04/22 12:03:02;;;;;;;0.00;0.00;;;8.90;99.90;;;;;;5055079;28;20362;-62
2024/04/22 12:05:37;;;;;;;0.00;0.00;;;9.10;99.90;;;;;;5061919;28;20392;-62
2024/04/22 12:08:05;;;;;;;0.00;0.00;;;9.00;99.90;;;;;;5058265;28;20343;-62
2024/04/22 12:10:31;;;;;;;0.00;0.00;;;8.90;99.90;;;;;;5040657;28;20015;-62
2024/04/22 12:12:59;;;;;;;0.00;0.00;;;9.00;99.90;;;;;;5055194;28;20360;-62
2024/04/22 12:15:26;;;;;;;0.00;0.00;;;9.10;99.90;;;;;;5022208;28;20009;-62
2024/04/22 12:17:52;;;;;;;0.00;0.00;;;9.10;99.90;;;;;;5041756;28;20015;-62
2024/04/22 12:20:18;;;;;;;0.00;0.00;;;9.10;99.90;;;;;;5059479;28;20030;-63
2024/04/22 12:22:44;;;;;;;0.00;0.00;;;8.90;99.90;;;;;;5044838;28;20326;-62
2024/04/22 12:25:35;;;;;;;0.00;0.00;;;8.90;99.90;;;;;;5043476;28;20017;-62
2024/04/22 12:28:01;;;;;;;0.00;0.00;;;8.90;99.90;;;;;;5045338;28;20026;-62
2024/04/22 12:30:27;;;;;;;0.00;0.00;;;8.80;99.90;;;;;;5057735;28;20073;-62
2024/04/22 12:32:53;;;;;;;0.00;0.00;;;8.70;99.90;;;;;;5044082;28;20019;-63
2024/04/22 12:35:19;;;;;;;0.00;0.00;;;8.60;99.90;;;;;;5049812;28;20006;-63
2024/04/22 12:37:45;;;;;;;0.00;0.00;;;8.60;99.90;;;;;;5045302;28;20096;-63
2024/04/22 12:40:21;;;;;;;0.13;0.08;;;8.70;99.90;;;;;;5044288;28;20625;-62
2024/04/22 12:42:48;;;;;;;0.00;0.00;;;8.90;99.90;;;;;;5043344;28;20471;-63
2024/04/22 12:45:16;;;;;;;0.03;0.03;;;9.00;99.90;;;;;;5065913;28;20018;-62
2024/04/22 12:51:11;;;;;;;0.00;0.00;;;9.00;99.90;;;;;;5043542;28;20007;-63
2024/04/22 12:53:37;;;;;;;0.00;0.00;;;9.00;99.90;;;;;;5046933;28;20023;-62
2024/04/22 13:00:06;;;;;;;0.00;0.00;;;8.80;99.90;;;;;;5074034;23;20013;-62
2024/04/22 13:03:13;;;;;;;0.00;0.00;;;8.70;99.90;;;;;;5070254;28;20007;-63
2024/04/22 13:09:22;;;;;;;0.00;0.00;;;8.70;99.90;;;;;;5076461;28;20024;-63
2024/04/22 13:11:48;;;;;;;0.00;0.00;;;8.90;99.90;;;;;;5071732;28;20065;-63
2024/04/22 13:17:41;;;;;;;0.00;0.00;;;9.20;99.90;;;;;;5052773;28;20025;-63
2024/04/22 13:20:21;;;;;;;0.00;0.00;;;8.70;99.90;;;;;;5076626;28;20038;-63
2024/04/22 13:22:47;;;;;;;0.00;0.00;;;8.70;99.90;;;;;;5047630;28;20029;-63
2024/04/22 13:25:13;;;;;;;0.00;0.00;;;8.70;99.90;;;;;;5096681;28;20005;-63
2024/04/22 13:27:40;;;;;;;0.38;0.10;;;8.80;99.90;;;;;;5090602;28;20022;-63
2024/04/22 13:30:11;;;;;;;0.00;0.00;;;9.00;99.90;;;;;;5087579;28;20014;-63
2024/04/22 13:32:38;;;;;;;0.00;0.00;;;9.30;99.90;;;;;;5074329;28;20084;-63